Terminal Aerodrome Forecast
Issued by NWS Topeka, KS

Home | Current Version | Previous Version | Graphics & Text | Print | Product List | Glossary On
Versions: 1 2 3 4 5 6 7 8 9 10 11 12 13 14
000
FTUS43 KTOP 250500
TAFTOP
TAF
KTOP 250527Z 2506/2606 19008KT P6SM SCT200
     FM251200 18011KT P6SM SCT200
     FM251600 18018G30KT P6SM BKN250
     FM260000 18012KT P6SM BKN200=

USA.gov is the U.S. government's official web portal to all federal, state and local government web resources and services.